sensor_id;sensor_type;location;lat;lon;timestamp;P1;durP1;ratioP1;P2;durP2;ratioP2
75073;SDS011;63652;51.526;5.080;2023-04-25T00:01:39;4.25;;;2.05;;
75073;SDS011;63652;51.526;5.080;2023-04-25T00:04:05;2.60;;;1.20;;
75073;SDS011;63652;51.526;5.080;2023-04-25T00:06:31;4.38;;;1.13;;
75073;SDS011;63652;51.526;5.080;2023-04-25T00:09:01;8.15;;;2.25;;
75073;SDS011;63652;51.526;5.080;2023-04-25T00:11:28;3.92;;;1.60;;
75073;SDS011;63652;51.526;5.080;2023-04-25T00:13:54;3.78;;;1.98;;
75073;SDS011;63652;51.526;5.080;2023-04-25T00:16:19;2.65;;;1.35;;
75073;SDS011;63652;51.526;5.080;2023-04-25T00:18:45;6.43;;;1.80;;
75073;SDS011;63652;51.526;5.080;2023-04-25T00:21:16;5.18;;;1.23;;
75073;SDS011;63652;51.526;5.080;2023-04-25T00:23:43;5.22;;;1.67;;
75073;SDS011;63652;51.526;5.080;2023-04-25T00:26:08;7.25;;;1.95;;
75073;SDS011;63652;51.526;5.080;2023-04-25T00:28:34;3.63;;;1.15;;
75073;SDS011;63652;51.526;5.080;2023-04-25T00:30:59;5.57;;;2.72;;
75073;SDS011;63652;51.526;5.080;2023-04-25T00:33:24;7.07;;;2.17;;
75073;SDS011;63652;51.526;5.080;2023-04-25T00:35:50;4.78;;;1.58;;
75073;SDS011;63652;51.526;5.080;2023-04-25T00:38:15;4.78;;;0.98;;
75073;SDS011;63652;51.526;5.080;2023-04-25T00:40:41;5.15;;;1.70;;
75073;SDS011;63652;51.526;5.080;2023-04-25T00:43:08;3.05;;;1.77;;
75073;SDS011;63652;51.526;5.080;2023-04-25T00:45:34;4.03;;;1.02;;
75073;SDS011;63652;51.526;5.080;2023-04-25T00:48:03;3.30;;;1.70;;
75073;SDS011;63652;51.526;5.080;2023-04-25T00:50:29;4.50;;;2.03;;
75073;SDS011;63652;51.526;5.080;2023-04-25T00:52:55;5.40;;;2.22;;
75073;SDS011;63652;51.526;5.080;2023-04-25T00:55:20;2.55;;;1.50;;
75073;SDS011;63652;51.526;5.080;2023-04-25T00:57:46;13.65;;;1.80;;
75073;SDS011;63652;51.526;5.080;2023-04-25T01:00:11;4.30;;;1.67;;
75073;SDS011;63652;51.526;5.080;2023-04-25T01:02:39;4.68;;;1.45;;
75073;SDS011;63652;51.526;5.080;2023-04-25T01:05:05;2.22;;;1.38;;
75073;SDS011;63652;51.526;5.080;2023-04-25T01:07:31;5.95;;;1.30;;
75073;SDS011;63652;51.526;5.080;2023-04-25T01:09:56;3.95;;;1.52;;
75073;SDS011;63652;51.526;5.080;2023-04-25T01:12:22;9.55;;;2.15;;
75073;SDS011;63652;51.526;5.080;2023-04-25T01:14:48;4.20;;;2.08;;
75073;SDS011;63652;51.526;5.080;2023-04-25T01:17:13;3.80;;;1.77;;
75073;SDS011;63652;51.526;5.080;2023-04-25T01:19:40;3.65;;;1.77;;
75073;SDS011;63652;51.526;5.080;2023-04-25T01:22:05;6.18;;;1.70;;
75073;SDS011;63652;51.526;5.080;2023-04-25T01:24:31;4.22;;;1.77;;
75073;SDS011;63652;51.526;5.080;2023-04-25T01:26:57;3.97;;;1.98;;
75073;SDS011;63652;51.526;5.080;2023-04-25T01:29:23;3.90;;;1.50;;
75073;SDS011;63652;51.526;5.080;2023-04-25T01:31:50;8.18;;;2.20;;
75073;SDS011;63652;51.526;5.080;2023-04-25T01:34:16;2.58;;;1.25;;
75073;SDS011;63652;51.526;5.080;2023-04-25T01:36:42;2.33;;;1.20;;
75073;SDS011;63652;51.526;5.080;2023-04-25T01:39:07;13.45;;;2.03;;
75073;SDS011;63652;51.526;5.080;2023-04-25T01:41:32;2.33;;;1.50;;
75073;SDS011;63652;51.526;5.080;2023-04-25T01:43:59;3.08;;;1.30;;
75073;SDS011;63652;51.526;5.080;2023-04-25T01:46:26;8.45;;;1.92;;
75073;SDS011;63652;51.526;5.080;2023-04-25T01:48:51;2.53;;;1.15;;
75073;SDS011;63652;51.526;5.080;2023-04-25T01:51:17;3.05;;;1.30;;
75073;SDS011;63652;51.526;5.080;2023-04-25T01:53:42;4.45;;;1.88;;
75073;SDS011;63652;51.526;5.080;2023-04-25T01:56:08;9.60;;;2.72;;
75073;SDS011;63652;51.526;5.080;2023-04-25T01:58:33;2.83;;;1.35;;
75073;SDS011;63652;51.526;5.080;2023-04-25T02:00:58;3.15;;;1.55;;
75073;SDS011;63652;51.526;5.080;2023-04-25T02:03:24;7.07;;;2.00;;
75073;SDS011;63652;51.526;5.080;2023-04-25T02:05:49;5.10;;;1.52;;
75073;SDS011;63652;51.526;5.080;2023-04-25T02:08:16;5.25;;;1.52;;
75073;SDS011;63652;51.526;5.080;2023-04-25T02:10:41;3.97;;;1.45;;
75073;SDS011;63652;51.526;5.080;2023-04-25T02:13:07;3.17;;;1.42;;
75073;SDS011;63652;51.526;5.080;2023-04-25T02:15:32;3.38;;;1.73;;
75073;SDS011;63652;51.526;5.080;2023-04-25T02:17:58;5.43;;;1.90;;
75073;SDS011;63652;51.526;5.080;2023-04-25T02:20:25;4.30;;;2.25;;
75073;SDS011;63652;51.526;5.080;2023-04-25T02:22:50;4.63;;;1.73;;
75073;SDS011;63652;51.526;5.080;2023-04-25T02:25:17;3.03;;;1.77;;
75073;SDS011;63652;51.526;5.080;2023-04-25T02:27:44;3.65;;;1.75;;
75073;SDS011;63652;51.526;5.080;2023-04-25T02:30:10;3.75;;;1.60;;
75073;SDS011;63652;51.526;5.080;2023-04-25T02:32:36;5.28;;;1.90;;
75073;SDS011;63652;51.526;5.080;2023-04-25T02:35:01;4.93;;;1.92;;
75073;SDS011;63652;51.526;5.080;2023-04-25T02:37:30;3.05;;;1.60;;
75073;SDS011;63652;51.526;5.080;2023-04-25T02:39:56;6.18;;;2.13;;
75073;SDS011;63652;51.526;5.080;2023-04-25T02:42:21;4.90;;;2.22;;
75073;SDS011;63652;51.526;5.080;2023-04-25T02:44:47;3.42;;;1.83;;
75073;SDS011;63652;51.526;5.080;2023-04-25T02:47:12;4.35;;;1.52;;
75073;SDS011;63652;51.526;5.080;2023-04-25T02:49:37;5.32;;;1.70;;
75073;SDS011;63652;51.526;5.080;2023-04-25T02:52:03;6.22;;;2.22;;
75073;SDS011;63652;51.526;5.080;2023-04-25T02:54:28;6.20;;;2.10;;
75073;SDS011;63652;51.526;5.080;2023-04-25T02:56:55;3.58;;;1.67;;
75073;SDS011;63652;51.526;5.080;2023-04-25T02:59:20;2.20;;;1.35;;
75073;SDS011;63652;51.526;5.080;2023-04-25T03:01:45;5.07;;;1.83;;
75073;SDS011;63652;51.526;5.080;2023-04-25T03:04:11;3.05;;;1.50;;
75073;SDS011;63652;51.526;5.080;2023-04-25T03:06:36;3.83;;;1.50;;
75073;SDS011;63652;51.526;5.080;2023-04-25T03:09:02;3.05;;;1.63;;
75073;SDS011;63652;51.526;5.080;2023-04-25T03:11:27;4.03;;;1.63;;
75073;SDS011;63652;51.526;5.080;2023-04-25T03:13:52;11.77;;;1.98;;
75073;SDS011;63652;51.526;5.080;2023-04-25T03:16:18;5.43;;;1.95;;
75073;SDS011;63652;51.526;5.080;2023-04-25T03:18:43;7.47;;;2.00;;
75073;SDS011;63652;51.526;5.080;2023-04-25T03:21:08;3.10;;;1.55;;
75073;SDS011;63652;51.526;5.080;2023-04-25T03:23:34;3.28;;;1.70;;
75073;SDS011;63652;51.526;5.080;2023-04-25T03:25:59;7.00;;;1.73;;
75073;SDS011;63652;51.526;5.080;2023-04-25T03:28:25;7.88;;;1.63;;
75073;SDS011;63652;51.526;5.080;2023-04-25T03:30:50;12.10;;;1.73;;
75073;SDS011;63652;51.526;5.080;2023-04-25T03:33:16;4.07;;;2.22;;
75073;SDS011;63652;51.526;5.080;2023-04-25T03:35:41;9.63;;;2.58;;
75073;SDS011;63652;51.526;5.080;2023-04-25T03:38:07;2.72;;;1.70;;
75073;SDS011;63652;51.526;5.080;2023-04-25T03:40:33;7.50;;;1.83;;
75073;SDS011;63652;51.526;5.080;2023-04-25T03:42:58;5.95;;;2.00;;
75073;SDS011;63652;51.526;5.080;2023-04-25T03:45:24;6.45;;;1.55;;
75073;SDS011;63652;51.526;5.080;2023-04-25T03:47:49;2.85;;;1.65;;
75073;SDS011;63652;51.526;5.080;2023-04-25T03:50:15;3.22;;;1.55;;
75073;SDS011;63652;51.526;5.080;2023-04-25T03:52:40;4.68;;;2.33;;
75073;SDS011;63652;51.526;5.080;2023-04-25T03:55:06;2.90;;;1.75;;
75073;SDS011;63652;51.526;5.080;2023-04-25T03:57:32;7.88;;;2.15;;
75073;SDS011;63652;51.526;5.080;2023-04-25T03:59:57;2.60;;;1.38;;
75073;SDS011;63652;51.526;5.080;2023-04-25T04:02:22;3.85;;;1.73;;
75073;SDS011;63652;51.526;5.080;2023-04-25T04:04:48;2.97;;;1.15;;
75073;SDS011;63652;51.526;5.080;2023-04-25T04:07:13;9.73;;;2.55;;
75073;SDS011;63652;51.526;5.080;2023-04-25T04:09:38;2.67;;;1.55;;
75073;SDS011;63652;51.526;5.080;2023-04-25T04:12:04;2.88;;;1.52;;
75073;SDS011;63652;51.526;5.080;2023-04-25T04:14:29;3.55;;;1.88;;
75073;SDS011;63652;51.526;5.080;2023-04-25T04:16:55;4.32;;;2.13;;
75073;SDS011;63652;51.526;5.080;2023-04-25T04:19:20;5.70;;;2.17;;
75073;SDS011;63652;51.526;5.080;2023-04-25T04:21:46;12.52;;;2.53;;
75073;SDS011;63652;51.526;5.080;2023-04-25T04:24:11;2.78;;;1.33;;
75073;SDS011;63652;51.526;5.080;2023-04-25T04:26:36;7.57;;;1.80;;
75073;SDS011;63652;51.526;5.080;2023-04-25T04:29:03;4.18;;;1.38;;
75073;SDS011;63652;51.526;5.080;2023-04-25T04:31:29;4.47;;;1.33;;
75073;SDS011;63652;51.526;5.080;2023-04-25T04:33:55;12.10;;;1.98;;
75073;SDS011;63652;51.526;5.080;2023-04-25T04:36:20;4.47;;;2.10;;
75073;SDS011;63652;51.526;5.080;2023-04-25T04:38:47;10.07;;;2.58;;
75073;SDS011;63652;51.526;5.080;2023-04-25T04:41:12;2.83;;;1.52;;
75073;SDS011;63652;51.526;5.080;2023-04-25T04:43:37;11.85;;;2.55;;
75073;SDS011;63652;51.526;5.080;2023-04-25T04:46:04;2.72;;;1.70;;
75073;SDS011;63652;51.526;5.080;2023-04-25T04:48:31;9.48;;;1.92;;
75073;SDS011;63652;51.526;5.080;2023-04-25T04:50:59;4.10;;;2.00;;
75073;SDS011;63652;51.526;5.080;2023-04-25T04:53:24;4.72;;;2.25;;
75073;SDS011;63652;51.526;5.080;2023-04-25T04:55:50;5.68;;;2.20;;
75073;SDS011;63652;51.526;5.080;2023-04-25T04:58:15;3.28;;;1.88;;
75073;SDS011;63652;51.526;5.080;2023-04-25T05:00:40;2.72;;;1.25;;
75073;SDS011;63652;51.526;5.080;2023-04-25T05:03:06;3.47;;;1.85;;
75073;SDS011;63652;51.526;5.080;2023-04-25T05:05:31;4.25;;;1.55;;
75073;SDS011;63652;51.526;5.080;2023-04-25T05:07:56;4.85;;;2.17;;
75073;SDS011;63652;51.526;5.080;2023-04-25T05:10:22;5.13;;;1.55;;
75073;SDS011;63652;51.526;5.080;2023-04-25T05:12:47;6.80;;;2.00;;
75073;SDS011;63652;51.526;5.080;2023-04-25T05:15:13;4.38;;;1.65;;
75073;SDS011;63652;51.526;5.080;2023-04-25T05:17:38;8.10;;;1.30;;
75073;SDS011;63652;51.526;5.080;2023-04-25T05:20:04;3.58;;;1.85;;
75073;SDS011;63652;51.526;5.080;2023-04-25T05:22:31;5.72;;;1.25;;
75073;SDS011;63652;51.526;5.080;2023-04-25T05:24:57;2.90;;;1.23;;
75073;SDS011;63652;51.526;5.080;2023-04-25T05:27:22;13.05;;;1.80;;
75073;SDS011;63652;51.526;5.080;2023-04-25T05:29:47;2.70;;;1.08;;
75073;SDS011;63652;51.526;5.080;2023-04-25T05:32:13;2.40;;;1.10;;
75073;SDS011;63652;51.526;5.080;2023-04-25T05:34:38;5.65;;;2.13;;
75073;SDS011;63652;51.526;5.080;2023-04-25T05:37:04;4.07;;;1.35;;
75073;SDS011;63652;51.526;5.080;2023-04-25T05:39:29;2.45;;;1.65;;
75073;SDS011;63652;51.526;5.080;2023-04-25T05:41:55;3.13;;;1.17;;
75073;SDS011;63652;51.526;5.080;2023-04-25T05:44:20;4.22;;;1.38;;
75073;SDS011;63652;51.526;5.080;2023-04-25T05:46:46;4.43;;;1.77;;
75073;SDS011;63652;51.526;5.080;2023-04-25T05:49:11;2.35;;;1.05;;
75073;SDS011;63652;51.526;5.080;2023-04-25T05:51:36;1.25;;;0.70;;
75073;SDS011;63652;51.526;5.080;2023-04-25T05:54:02;3.90;;;1.58;;
75073;SDS011;63652;51.526;5.080;2023-04-25T05:56:31;2.75;;;1.15;;
75073;SDS011;63652;51.526;5.080;2023-04-25T05:58:56;4.55;;;1.15;;
75073;SDS011;63652;51.526;5.080;2023-04-25T06:01:22;1.63;;;0.82;;
75073;SDS011;63652;51.526;5.080;2023-04-25T06:03:48;1.73;;;0.85;;
75073;SDS011;63652;51.526;5.080;2023-04-25T06:06:13;6.63;;;1.23;;
75073;SDS011;63652;51.526;5.080;2023-04-25T06:08:39;4.70;;;1.55;;
75073;SDS011;63652;51.526;5.080;2023-04-25T06:11:05;2.38;;;0.98;;
75073;SDS011;63652;51.526;5.080;2023-04-25T06:13:31;0.90;;;0.45;;
75073;SDS011;63652;51.526;5.080;2023-04-25T06:15:56;2.00;;;0.85;;
75073;SDS011;63652;51.526;5.080;2023-04-25T06:18:21;4.05;;;0.45;;
75073;SDS011;63652;51.526;5.080;2023-04-25T06:20:47;0.40;;;0.30;;
75073;SDS011;63652;51.526;5.080;2023-04-25T06:23:12;2.58;;;1.10;;
75073;SDS011;63652;51.526;5.080;2023-04-25T06:25:37;3.22;;;0.70;;
75073;SDS011;63652;51.526;5.080;2023-04-25T06:28:03;4.97;;;0.82;;
75073;SDS011;63652;51.526;5.080;2023-04-25T06:30:28;1.42;;;0.70;;
75073;SDS011;63652;51.526;5.080;2023-04-25T06:32:54;5.03;;;1.63;;
75073;SDS011;63652;51.526;5.080;2023-04-25T06:35:20;1.75;;;0.60;;
75073;SDS011;63652;51.526;5.080;2023-04-25T06:37:45;1.42;;;0.70;;
75073;SDS011;63652;51.526;5.080;2023-04-25T06:40:11;3.83;;;0.60;;
75073;SDS011;63652;51.526;5.080;2023-04-25T06:42:36;1.63;;;0.95;;
75073;SDS011;63652;51.526;5.080;2023-04-25T06:45:02;3.45;;;0.85;;
75073;SDS011;63652;51.526;5.080;2023-04-25T06:47:28;4.20;;;1.00;;
75073;SDS011;63652;51.526;5.080;2023-04-25T06:49:54;1.10;;;0.52;;
75073;SDS011;63652;51.526;5.080;2023-04-25T06:52:20;3.75;;;0.55;;
75073;SDS011;63652;51.526;5.080;2023-04-25T06:54:45;6.80;;;0.93;;
75073;SDS011;63652;51.526;5.080;2023-04-25T06:57:10;2.78;;;1.10;;
75073;SDS011;63652;51.526;5.080;2023-04-25T06:59:36;6.28;;;0.93;;
75073;SDS011;63652;51.526;5.080;2023-04-25T07:02:01;1.58;;;0.68;;
75073;SDS011;63652;51.526;5.080;2023-04-25T07:04:27;1.15;;;0.50;;
75073;SDS011;63652;51.526;5.080;2023-04-25T07:06:52;2.75;;;1.05;;
75073;SDS011;63652;51.526;5.080;2023-04-25T07:09:18;4.35;;;0.55;;
75073;SDS011;63652;51.526;5.080;2023-04-25T07:11:43;1.38;;;0.77;;
75073;SDS011;63652;51.526;5.080;2023-04-25T07:14:09;0.93;;;0.32;;
75073;SDS011;63652;51.526;5.080;2023-04-25T07:16:34;1.92;;;0.95;;
75073;SDS011;63652;51.526;5.080;2023-04-25T07:18:59;5.68;;;0.75;;
75073;SDS011;63652;51.526;5.080;2023-04-25T07:21:25;1.75;;;0.47;;
75073;SDS011;63652;51.526;5.080;2023-04-25T07:23:50;0.77;;;0.35;;
75073;SDS011;63652;51.526;5.080;2023-04-25T07:26:16;1.40;;;0.63;;
75073;SDS011;63652;51.526;5.080;2023-04-25T07:28:41;1.48;;;0.57;;
75073;SDS011;63652;51.526;5.080;2023-04-25T07:31:07;0.80;;;0.45;;
75073;SDS011;63652;51.526;5.080;2023-04-25T07:33:33;1.42;;;0.57;;
75073;SDS011;63652;51.526;5.080;2023-04-25T07:35:58;1.95;;;0.75;;
75073;SDS011;63652;51.526;5.080;2023-04-25T07:38:23;2.92;;;0.50;;
75073;SDS011;63652;51.526;5.080;2023-04-25T07:40:49;1.45;;;0.73;;
75073;SDS011;63652;51.526;5.080;2023-04-25T07:43:14;1.35;;;0.38;;
75073;SDS011;63652;51.526;5.080;2023-04-25T07:45:44;6.78;;;0.65;;
75073;SDS011;63652;51.526;5.080;2023-04-25T07:48:10;0.63;;;0.30;;
75073;SDS011;63652;51.526;5.080;2023-04-25T07:50:35;0.77;;;0.35;;
75073;SDS011;63652;51.526;5.080;2023-04-25T07:53:01;0.82;;;0.57;;
75073;SDS011;63652;51.526;5.080;2023-04-25T07:55:27;1.65;;;0.32;;
75073;SDS011;63652;51.526;5.080;2023-04-25T07:57:53;0.73;;;0.47;;
75073;SDS011;63652;51.526;5.080;2023-04-25T08:00:18;0.17;;;0.17;;
75073;SDS011;63652;51.526;5.080;2023-04-25T08:02:44;2.38;;;0.40;;
75073;SDS011;63652;51.526;5.080;2023-04-25T08:05:09;0.85;;;0.47;;
75073;SDS011;63652;51.526;5.080;2023-04-25T08:07:39;1.05;;;0.50;;
75073;SDS011;63652;51.526;5.080;2023-04-25T08:10:05;5.22;;;0.90;;
75073;SDS011;63652;51.526;5.080;2023-04-25T08:12:31;6.95;;;0.52;;
75073;SDS011;63652;51.526;5.080;2023-04-25T08:14:57;2.20;;;0.50;;
75073;SDS011;63652;51.526;5.080;2023-04-25T08:17:22;1.60;;;0.63;;
75073;SDS011;63652;51.526;5.080;2023-04-25T08:19:48;1.63;;;0.60;;
75073;SDS011;63652;51.526;5.080;2023-04-25T08:22:14;1.15;;;0.65;;
75073;SDS011;63652;51.526;5.080;2023-04-25T08:24:39;1.67;;;0.60;;
75073;SDS011;63652;51.526;5.080;2023-04-25T08:27:05;0.90;;;0.32;;
75073;SDS011;63652;51.526;5.080;2023-04-25T08:29:32;1.73;;;0.60;;
75073;SDS011;63652;51.526;5.080;2023-04-25T08:31:57;3.35;;;0.80;;
75073;SDS011;63652;51.526;5.080;2023-04-25T08:34:23;0.73;;;0.47;;
75073;SDS011;63652;51.526;5.080;2023-04-25T08:36:48;5.30;;;0.30;;
75073;SDS011;63652;51.526;5.080;2023-04-25T08:39:14;1.02;;;0.30;;
75073;SDS011;63652;51.526;5.080;2023-04-25T08:41:40;1.25;;;0.63;;
75073;SDS011;63652;51.526;5.080;2023-04-25T08:44:06;0.50;;;0.30;;
75073;SDS011;63652;51.526;5.080;2023-04-25T08:46:34;0.80;;;0.30;;
75073;SDS011;63652;51.526;5.080;2023-04-25T08:49:08;1.05;;;0.32;;
75073;SDS011;63652;51.526;5.080;2023-04-25T08:51:37;0.68;;;0.43;;
75073;SDS011;63652;51.526;5.080;2023-04-25T08:54:10;9.70;;;0.73;;
75073;SDS011;63652;51.526;5.080;2023-04-25T08:56:44;0.98;;;0.13;;
75073;SDS011;63652;51.526;5.080;2023-04-25T08:59:11;0.80;;;0.35;;
75073;SDS011;63652;51.526;5.080;2023-04-25T09:01:37;2.85;;;0.80;;
75073;SDS011;63652;51.526;5.080;2023-04-25T09:04:02;1.10;;;0.30;;
75073;SDS011;63652;51.526;5.080;2023-04-25T09:06:28;2.30;;;1.23;;
75073;SDS011;63652;51.526;5.080;2023-04-25T09:09:00;4.28;;;0.45;;
75073;SDS011;63652;51.526;5.080;2023-04-25T09:11:27;0.85;;;0.38;;
75073;SDS011;63652;51.526;5.080;2023-04-25T09:14:09;3.03;;;0.40;;
75073;SDS011;63652;51.526;5.080;2023-04-25T09:19:21;0.73;;;0.35;;
75073;SDS011;63652;51.526;5.080;2023-04-25T09:21:48;4.93;;;0.50;;
75073;SDS011;63652;51.526;5.080;2023-04-25T09:24:14;0.38;;;0.25;;
75073;SDS011;63652;51.526;5.080;2023-04-25T09:26:40;0.75;;;0.43;;
75073;SDS011;63652;51.526;5.080;2023-04-25T09:29:06;4.72;;;0.73;;
75073;SDS011;63652;51.526;5.080;2023-04-25T09:31:32;1.20;;;0.50;;
75073;SDS011;63652;51.526;5.080;2023-04-25T09:34:01;1.80;;;0.60;;
75073;SDS011;63652;51.526;5.080;2023-04-25T09:36:27;1.35;;;0.55;;
75073;SDS011;63652;51.526;5.080;2023-04-25T09:38:55;0.75;;;0.52;;
75073;SDS011;63652;51.526;5.080;2023-04-25T09:41:24;1.13;;;0.40;;
75073;SDS011;63652;51.526;5.080;2023-04-25T09:43:50;1.40;;;0.60;;
75073;SDS011;63652;51.526;5.080;2023-04-25T09:46:15;0.40;;;0.17;;
75073;SDS011;63652;51.526;5.080;2023-04-25T09:48:47;3.83;;;0.65;;
75073;SDS011;63652;51.526;5.080;2023-04-25T09:51:13;1.23;;;0.77;;
75073;SDS011;63652;51.526;5.080;2023-04-25T09:53:40;3.45;;;0.52;;
75073;SDS011;63652;51.526;5.080;2023-04-25T09:56:07;2.58;;;0.60;;
75073;SDS011;63652;51.526;5.080;2023-04-25T09:58:33;0.55;;;0.25;;
75073;SDS011;63652;51.526;5.080;2023-04-25T10:01:04;0.60;;;0.35;;
75073;SDS011;63652;51.526;5.080;2023-04-25T10:03:31;1.13;;;0.43;;
75073;SDS011;63652;51.526;5.080;2023-04-25T10:06:01;1.63;;;0.47;;
75073;SDS011;63652;51.526;5.080;2023-04-25T10:08:33;5.82;;;0.95;;
75073;SDS011;63652;51.526;5.080;2023-04-25T10:11:03;0.35;;;0.10;;
75073;SDS011;63652;51.526;5.080;2023-04-25T10:13:30;1.58;;;0.30;;
75073;SDS011;63652;51.526;5.080;2023-04-25T10:15:59;0.13;;;0.10;;
75073;SDS011;63652;51.526;5.080;2023-04-25T10:18:26;1.23;;;0.35;;
75073;SDS011;63652;51.526;5.080;2023-04-25T10:21:01;1.92;;;0.25;;
75073;SDS011;63652;51.526;5.080;2023-04-25T10:23:29;1.40;;;0.28;;
75073;SDS011;63652;51.526;5.080;2023-04-25T10:25:55;3.83;;;0.47;;
75073;SDS011;63652;51.526;5.080;2023-04-25T10:28:21;2.08;;;0.50;;
75073;SDS011;63652;51.526;5.080;2023-04-25T10:31:04;0.22;;;0.17;;
75073;SDS011;63652;51.526;5.080;2023-04-25T10:33:36;2.17;;;0.70;;
75073;SDS011;63652;51.526;5.080;2023-04-25T10:36:09;1.77;;;0.40;;
75073;SDS011;63652;51.526;5.080;2023-04-25T10:38:39;0.32;;;0.20;;
75073;SDS011;63652;51.526;5.080;2023-04-25T10:41:05;2.22;;;0.40;;
75073;SDS011;63652;51.526;5.080;2023-04-25T10:43:39;0.60;;;0.20;;
75073;SDS011;63652;51.526;5.080;2023-04-25T10:48:45;2.85;;;0.20;;
75073;SDS011;63652;51.526;5.080;2023-04-25T10:51:15;0.82;;;0.35;;
75073;SDS011;63652;51.526;5.080;2023-04-25T10:53:45;2.70;;;0.30;;
75073;SDS011;63652;51.526;5.080;2023-04-25T10:56:58;0.32;;;0.10;;
75073;SDS011;63652;51.526;5.080;2023-04-25T10:59:07;0.95;;;0.30;;
75073;SDS011;63652;51.526;5.080;2023-04-25T11:01:35;2.28;;;0.40;;
75073;SDS011;63652;51.526;5.080;2023-04-25T11:04:31;4.63;;;0.85;;
75073;SDS011;63652;51.526;5.080;2023-04-25T11:09:32;0.20;;;0.10;;
75073;SDS011;63652;51.526;5.080;2023-04-25T11:11:58;3.13;;;0.22;;
75073;SDS011;63652;51.526;5.080;2023-04-25T11:14:25;0.75;;;0.65;;
75073;SDS011;63652;51.526;5.080;2023-04-25T11:16:54;1.85;;;0.38;;
75073;SDS011;63652;51.526;5.080;2023-04-25T11:19:21;0.22;;;0.10;;
75073;SDS011;63652;51.526;5.080;2023-04-25T11:21:46;2.25;;;0.55;;
75073;SDS011;63652;51.526;5.080;2023-04-25T11:24:12;1.65;;;0.60;;
75073;SDS011;63652;51.526;5.080;2023-04-25T11:26:37;4.03;;;0.40;;
75073;SDS011;63652;51.526;5.080;2023-04-25T11:29:03;0.80;;;0.25;;
75073;SDS011;63652;51.526;5.080;2023-04-25T11:31:28;0.50;;;0.22;;
75073;SDS011;63652;51.526;5.080;2023-04-25T11:33:56;1.23;;;0.30;;
75073;SDS011;63652;51.526;5.080;2023-04-25T11:36:22;0.52;;;0.17;;
75073;SDS011;63652;51.526;5.080;2023-04-25T11:38:49;0.68;;;0.30;;
75073;SDS011;63652;51.526;5.080;2023-04-25T11:41:15;3.60;;;0.35;;
75073;SDS011;63652;51.526;5.080;2023-04-25T11:43:42;0.77;;;0.32;;
75073;SDS011;63652;51.526;5.080;2023-04-25T11:46:08;3.95;;;0.55;;
75073;SDS011;63652;51.526;5.080;2023-04-25T11:48:42;0.57;;;0.30;;
75073;SDS011;63652;51.526;5.080;2023-04-25T11:51:08;1.40;;;0.20;;
75073;SDS011;63652;51.526;5.080;2023-04-25T11:53:34;0.43;;;0.20;;
75073;SDS011;63652;51.526;5.080;2023-04-25T11:56:00;2.25;;;0.30;;
75073;SDS011;63652;51.526;5.080;2023-04-25T11:58:26;2.20;;;0.63;;
75073;SDS011;63652;51.526;5.080;2023-04-25T12:00:51;4.53;;;0.60;;
75073;SDS011;63652;51.526;5.080;2023-04-25T12:03:17;0.30;;;0.13;;
75073;SDS011;63652;51.526;5.080;2023-04-25T12:05:43;3.05;;;0.50;;
75073;SDS011;63652;51.526;5.080;2023-04-25T12:08:13;1.75;;;0.40;;
75073;SDS011;63652;51.526;5.080;2023-04-25T12:10:39;1.63;;;0.40;;
75073;SDS011;63652;51.526;5.080;2023-04-25T12:13:21;0.88;;;0.68;;
75073;SDS011;63652;51.526;5.080;2023-04-25T12:15:50;0.32;;;0.20;;
75073;SDS011;63652;51.526;5.080;2023-04-25T12:18:20;0.50;;;0.20;;
75073;SDS011;63652;51.526;5.080;2023-04-25T12:20:46;2.22;;;0.28;;
75073;SDS011;63652;51.526;5.080;2023-04-25T12:23:11;2.45;;;0.85;;
75073;SDS011;63652;51.526;5.080;2023-04-25T12:25:38;3.13;;;0.40;;
75073;SDS011;63652;51.526;5.080;2023-04-25T12:28:09;4.18;;;0.55;;
75073;SDS011;63652;51.526;5.080;2023-04-25T12:33:17;4.13;;;1.02;;
75073;SDS011;63652;51.526;5.080;2023-04-25T12:35:43;1.40;;;0.30;;
75073;SDS011;63652;51.526;5.080;2023-04-25T12:38:08;0.40;;;0.22;;
75073;SDS011;63652;51.526;5.080;2023-04-25T12:40:34;0.40;;;0.20;;
75073;SDS011;63652;51.526;5.080;2023-04-25T12:42:59;1.60;;;0.47;;
75073;SDS011;63652;51.526;5.080;2023-04-25T12:45:24;2.08;;;0.50;;
75073;SDS011;63652;51.526;5.080;2023-04-25T12:47:50;0.50;;;0.30;;
75073;SDS011;63652;51.526;5.080;2023-04-25T12:50:16;0.70;;;0.22;;
75073;SDS011;63652;51.526;5.080;2023-04-25T12:52:41;1.27;;;0.40;;
75073;SDS011;63652;51.526;5.080;2023-04-25T12:55:06;0.57;;;0.25;;
75073;SDS011;63652;51.526;5.080;2023-04-25T12:57:32;0.52;;;0.30;;
75073;SDS011;63652;51.526;5.080;2023-04-25T12:59:57;2.05;;;0.35;;
75073;SDS011;63652;51.526;5.080;2023-04-25T13:02:22;2.10;;;0.38;;
75073;SDS011;63652;51.526;5.080;2023-04-25T13:04:48;0.68;;;0.20;;
75073;SDS011;63652;51.526;5.080;2023-04-25T13:07:13;1.45;;;0.40;;
75073;SDS011;63652;51.526;5.080;2023-04-25T13:09:38;0.57;;;0.17;;
75073;SDS011;63652;51.526;5.080;2023-04-25T13:12:04;0.13;;;0.08;;
75073;SDS011;63652;51.526;5.080;2023-04-25T13:14:30;0.28;;;0.13;;
75073;SDS011;63652;51.526;5.080;2023-04-25T13:16:55;0.10;;;0.03;;
75073;SDS011;63652;51.526;5.080;2023-04-25T13:19:21;0.50;;;0.20;;
75073;SDS011;63652;51.526;5.080;2023-04-25T13:21:46;2.38;;;0.57;;
75073;SDS011;63652;51.526;5.080;2023-04-25T13:24:11;2.47;;;0.20;;
75073;SDS011;63652;51.526;5.080;2023-04-25T13:26:37;0.55;;;0.20;;
75073;SDS011;63652;51.526;5.080;2023-04-25T13:29:02;1.85;;;0.57;;
75073;SDS011;63652;51.526;5.080;2023-04-25T13:31:28;3.55;;;0.30;;
75073;SDS011;63652;51.526;5.080;2023-04-25T13:33:54;0.43;;;0.30;;
75073;SDS011;63652;51.526;5.080;2023-04-25T13:36:20;1.08;;;0.40;;
75073;SDS011;63652;51.526;5.080;2023-04-25T13:38:45;9.82;;;0.60;;
75073;SDS011;63652;51.526;5.080;2023-04-25T13:41:12;1.17;;;0.50;;
75073;SDS011;63652;51.526;5.080;2023-04-25T13:43:42;0.40;;;0.10;;
75073;SDS011;63652;51.526;5.080;2023-04-25T13:46:08;0.82;;;0.30;;
75073;SDS011;63652;51.526;5.080;2023-04-25T13:48:33;2.83;;;0.57;;
75073;SDS011;63652;51.526;5.080;2023-04-25T13:50:58;0.88;;;0.25;;
75073;SDS011;63652;51.526;5.080;2023-04-25T13:53:24;1.42;;;0.47;;
75073;SDS011;63652;51.526;5.080;2023-04-25T13:55:50;0.25;;;0.20;;
75073;SDS011;63652;51.526;5.080;2023-04-25T13:58:15;0.35;;;0.30;;
75073;SDS011;63652;51.526;5.080;2023-04-25T14:00:40;1.55;;;0.57;;
75073;SDS011;63652;51.526;5.080;2023-04-25T14:03:08;0.80;;;0.30;;
75073;SDS011;63652;51.526;5.080;2023-04-25T14:05:34;1.60;;;0.60;;
75073;SDS011;63652;51.526;5.080;2023-04-25T14:08:07;2.30;;;0.45;;
75073;SDS011;63652;51.526;5.080;2023-04-25T14:10:33;3.15;;;0.43;;
75073;SDS011;63652;51.526;5.080;2023-04-25T14:12:59;0.68;;;0.22;;
75073;SDS011;63652;51.526;5.080;2023-04-25T14:15:25;3.75;;;0.60;;
75073;SDS011;63652;51.526;5.080;2023-04-25T14:17:51;0.65;;;0.20;;
75073;SDS011;63652;51.526;5.080;2023-04-25T14:20:16;1.35;;;0.50;;
75073;SDS011;63652;51.526;5.080;2023-04-25T14:22:45;1.63;;;0.93;;
75073;SDS011;63652;51.526;5.080;2023-04-25T14:25:10;5.05;;;0.57;;
75073;SDS011;63652;51.526;5.080;2023-04-25T14:27:36;2.08;;;0.40;;
75073;SDS011;63652;51.526;5.080;2023-04-25T14:30:01;0.60;;;0.50;;
75073;SDS011;63652;51.526;5.080;2023-04-25T14:32:26;0.30;;;0.20;;
75073;SDS011;63652;51.526;5.080;2023-04-25T14:34:52;0.68;;;0.15;;
75073;SDS011;63652;51.526;5.080;2023-04-25T14:37:17;0.50;;;0.22;;
75073;SDS011;63652;51.526;5.080;2023-04-25T14:39:42;2.42;;;0.52;;
75073;SDS011;63652;51.526;5.080;2023-04-25T14:42:08;0.45;;;0.13;;
75073;SDS011;63652;51.526;5.080;2023-04-25T14:44:33;0.77;;;0.17;;
75073;SDS011;63652;51.526;5.080;2023-04-25T14:46:59;3.10;;;0.73;;
75073;SDS011;63652;51.526;5.080;2023-04-25T14:49:24;1.00;;;0.40;;
75073;SDS011;63652;51.526;5.080;2023-04-25T14:51:49;1.38;;;0.43;;
75073;SDS011;63652;51.526;5.080;2023-04-25T14:54:16;1.92;;;0.47;;